Terminal Aerodrome Forecast
Issued by NWS

Home | Current Version | Previous Version | Text Only | Print | Product List | Glossary On
Versions: 1 2 3 4 5 6 7 8 9 10 11 12 13 14 15 16 17
000
FTAK31 PAJN 242323
TAFAWG
TAF
PAWG 242323Z 2500/2524 31006KT P6SM FEW030 SCT050
     FM250900 30005KT 3SM BR BKN010 OVC015
     FM251700 30005KT P6SM SCT010 OVC025
     FM252100 30004KT P6SM SCT025
      AMD LTD TO CLD VIS AND WIND 2506/2515=

USA.gov is the U.S. government's official web portal to all federal, state and local government web resources and services.